createdAt,value
2022-09-30T00:01:36.733Z,12.15
2022-09-30T00:04:05.285Z,12.18
2022-09-30T00:06:35.238Z,12.11
2022-09-30T00:09:03.896Z,12.13
2022-09-30T00:11:33.991Z,12.14
2022-09-30T00:14:03.501Z,12.17
2022-09-30T00:16:36.273Z,12.20
2022-09-30T00:19:05.648Z,12.22
2022-09-30T00:21:34.999Z,12.23
2022-09-30T00:24:04.218Z,12.21
2022-09-30T00:26:33.175Z,12.22
2022-09-30T00:29:01.946Z,12.21
2022-09-30T00:31:34.737Z,12.22
2022-09-30T00:34:09.429Z,12.17
2022-09-30T00:36:40.137Z,12.17
2022-09-30T00:39:10.445Z,12.22
2022-09-30T00:41:39.279Z,12.21
2022-09-30T00:44:44.493Z,12.24
2022-09-30T00:47:36.919Z,12.15
2022-09-30T00:50:13.553Z,12.08
2022-09-30T00:52:43.090Z,12.22
2022-09-30T00:55:24.531Z,12.32
2022-09-30T00:57:52.878Z,12.32
2022-09-30T01:00:20.892Z,12.30
2022-09-30T01:02:51.318Z,12.23
2022-09-30T01:05:20.306Z,12.20
2022-09-30T01:07:49.343Z,12.13
2022-09-30T01:10:17.534Z,12.04
2022-09-30T01:12:45.688Z,12.02
2022-09-30T01:15:13.865Z,11.97
2022-09-30T01:17:54.898Z,11.94
2022-09-30T01:20:54.101Z,11.95
2022-09-30T01:24:15.943Z,11.93
2022-09-30T01:26:58.899Z,11.80
2022-09-30T01:29:54.824Z,11.82
2022-09-30T01:32:39.091Z,11.76
2022-09-30T01:35:17.693Z,11.71
2022-09-30T01:37:54.808Z,11.74
2022-09-30T01:40:31.100Z,11.74
2022-09-30T01:43:11.114Z,11.70
2022-09-30T01:45:44.785Z,11.58
2022-09-30T01:48:23.054Z,11.50
2022-09-30T01:50:56.768Z,11.49
2022-09-30T01:53:32.665Z,11.49
2022-09-30T01:56:05.438Z,11.44
2022-09-30T01:58:40.986Z,11.47
2022-09-30T02:01:15.220Z,11.47
2022-09-30T02:03:49.963Z,11.46
2022-09-30T02:06:22.916Z,11.32
2022-09-30T02:08:56.712Z,11.30
2022-09-30T02:11:27.925Z,11.28
2022-09-30T02:14:02.956Z,11.25
2022-09-30T02:16:40.890Z,11.26
2022-09-30T02:19:20.556Z,11.33
2022-09-30T02:21:55.489Z,11.37
2022-09-30T02:24:25.307Z,11.38
2022-09-30T02:26:56.366Z,11.44
2022-09-30T02:29:30.451Z,11.43
2022-09-30T02:32:03.648Z,11.36
2022-09-30T02:34:37.228Z,11.38
2022-09-30T02:37:11.583Z,11.40
2022-09-30T02:39:44.494Z,11.41
2022-09-30T02:42:16.216Z,11.36
2022-09-30T02:44:44.094Z,11.40
2022-09-30T02:47:16.751Z,11.39
2022-09-30T02:49:51.798Z,11.40
2022-09-30T02:52:27.426Z,11.42
2022-09-30T02:55:10.993Z,11.43
2022-09-30T02:57:49.182Z,11.44
2022-09-30T03:00:17.253Z,11.42
2022-09-30T03:02:45.306Z,11.49
2022-09-30T03:05:15.068Z,11.50
2022-09-30T03:07:43.068Z,11.47
2022-09-30T03:10:15.888Z,11.50
2022-09-30T03:13:00.942Z,11.53
2022-09-30T03:15:40.301Z,11.52
2022-09-30T03:18:34.131Z,11.57
2022-09-30T03:21:11.352Z,11.63
2022-09-30T03:24:07.676Z,11.67
2022-09-30T03:26:41.241Z,11.67
2022-09-30T03:29:15.231Z,11.71
2022-09-30T03:31:54.075Z,11.76
2022-09-30T03:34:30.063Z,11.78
2022-09-30T03:37:08.860Z,11.70
2022-09-30T03:39:51.028Z,11.65
2022-09-30T03:42:27.225Z,11.59
2022-09-30T03:45:02.557Z,11.53
2022-09-30T03:47:33.434Z,11.49
2022-09-30T03:50:06.417Z,11.44
2022-09-30T03:52:36.559Z,11.39
2022-09-30T03:55:08.048Z,11.43
2022-09-30T03:57:35.973Z,11.37
2022-09-30T04:00:06.956Z,11.36
2022-09-30T04:02:36.245Z,11.43
2022-09-30T04:05:04.421Z,11.43
2022-09-30T04:07:32.298Z,11.46
2022-09-30T04:10:01.760Z,11.49
2022-09-30T04:12:29.829Z,11.44
2022-09-30T04:14:57.653Z,11.39
2022-09-30T04:17:25.769Z,11.42
2022-09-30T04:19:53.549Z,11.41
2022-09-30T04:22:26.152Z,11.47
2022-09-30T04:24:54.472Z,11.49
2022-09-30T04:27:23.688Z,11.58
2022-09-30T04:29:51.529Z,11.58
2022-09-30T04:32:19.429Z,11.59
2022-09-30T04:34:47.276Z,11.58
2022-09-30T04:37:15.751Z,11.63
2022-09-30T04:39:44.430Z,11.56
2022-09-30T04:42:12.284Z,11.51
2022-09-30T04:44:41.678Z,11.51
2022-09-30T04:47:09.937Z,11.45
2022-09-30T04:51:52.851Z,11.35
2022-09-30T04:54:20.881Z,11.32
2022-09-30T04:56:48.792Z,11.32
2022-09-30T04:59:16.724Z,11.32
2022-09-30T05:01:44.863Z,11.29
2022-09-30T05:04:13.282Z,11.30
2022-09-30T05:06:41.723Z,11.34
2022-09-30T05:09:11.235Z,11.37
2022-09-30T05:11:41.588Z,11.40
2022-09-30T05:14:10.044Z,11.33
2022-09-30T05:16:38.469Z,11.30
2022-09-30T05:19:06.461Z,11.28
2022-09-30T05:21:34.286Z,11.27
2022-09-30T05:24:02.810Z,11.24
2022-09-30T05:26:33.039Z,11.22
2022-09-30T05:29:00.929Z,11.17
2022-09-30T05:31:28.984Z,11.10
2022-09-30T05:33:58.193Z,11.10
2022-09-30T05:36:26.434Z,11.04
2022-09-30T05:38:55.083Z,11.08
2022-09-30T05:41:24.527Z,11.08
2022-09-30T05:43:53.773Z,10.98
2022-09-30T05:46:22.036Z,10.94
2022-09-30T05:48:50.043Z,10.92
2022-09-30T05:51:17.890Z,10.88
2022-09-30T05:53:46.015Z,10.86
2022-09-30T05:56:14.012Z,10.90
2022-09-30T05:58:42.245Z,10.88
2022-09-30T06:01:15.603Z,10.93
2022-09-30T06:03:44.581Z,10.97
2022-09-30T06:06:12.961Z,10.97
2022-09-30T06:08:41.552Z,10.97
2022-09-30T06:11:12.824Z,10.98
2022-09-30T06:13:42.105Z,11.00
2022-09-30T06:16:13.651Z,11.02
2022-09-30T06:18:42.491Z,11.02
2022-09-30T06:21:12.613Z,11.10
2022-09-30T06:23:41.040Z,11.14
2022-09-30T06:26:11.959Z,11.18
2022-09-30T06:28:40.213Z,11.23
2022-09-30T06:31:08.483Z,11.29
2022-09-30T06:33:37.858Z,11.38
2022-09-30T06:36:06.872Z,11.49
2022-09-30T06:38:37.621Z,11.56
2022-09-30T06:41:05.723Z,11.59
2022-09-30T06:43:41.190Z,11.62
2022-09-30T06:46:24.371Z,11.64
2022-09-30T06:49:12.080Z,11.67
2022-09-30T06:51:41.213Z,11.68
2022-09-30T06:54:09.353Z,11.73
2022-09-30T06:56:38.117Z,11.76
2022-09-30T06:59:06.123Z,11.81
2022-09-30T07:01:33.958Z,11.84
2022-09-30T07:04:09.493Z,11.91
2022-09-30T07:06:39.024Z,11.99
2022-09-30T07:09:07.818Z,12.03
2022-09-30T07:11:37.472Z,12.03
2022-09-30T07:14:05.826Z,12.02
2022-09-30T07:16:34.974Z,12.08
2022-09-30T07:19:05.818Z,12.10
2022-09-30T07:21:34.046Z,12.14
2022-09-30T07:24:02.203Z,12.18
2022-09-30T07:26:31.277Z,12.28
2022-09-30T07:29:00.131Z,12.35
2022-09-30T07:31:32.926Z,12.42
2022-09-30T07:34:02.057Z,12.46
2022-09-30T07:36:33.587Z,12.48
2022-09-30T07:39:06.371Z,12.56
2022-09-30T07:41:37.739Z,12.66
2022-09-30T07:44:07.373Z,12.77
2022-09-30T07:46:39.210Z,12.79
2022-09-30T07:49:09.203Z,12.84
2022-09-30T07:51:41.775Z,12.94
2022-09-30T07:54:12.465Z,12.95
2022-09-30T07:57:05.472Z,12.91
2022-09-30T07:59:31.726Z,13.10
2022-09-30T08:02:00.015Z,13.13
2022-09-30T08:04:28.968Z,13.28
2022-09-30T08:07:00.415Z,13.38
2022-09-30T08:09:30.400Z,13.48
2022-09-30T08:11:58.535Z,13.57
2022-09-30T08:14:27.815Z,13.60
2022-09-30T08:16:58.397Z,13.74
2022-09-30T08:19:27.810Z,13.79
2022-09-30T08:21:56.221Z,13.77
2022-09-30T08:24:27.136Z,13.85
2022-09-30T08:26:56.247Z,14.00
2022-09-30T08:29:49.982Z,14.65
2022-09-30T08:32:12.604Z,16.01
2022-09-30T08:34:40.449Z,17.44
2022-09-30T08:37:10.190Z,19.05
2022-09-30T08:39:40.200Z,20.33
2022-09-30T08:42:48.389Z,20.20
2022-09-30T08:45:28.006Z,19.58
2022-09-30T08:48:04.234Z,20.66
2022-09-30T08:50:41.840Z,21.86
2022-09-30T08:53:12.949Z,22.63
2022-09-30T08:55:44.792Z,23.34
2022-09-30T08:58:23.753Z,23.21
2022-09-30T09:00:54.033Z,23.61
2022-09-30T09:03:23.725Z,23.31
2022-09-30T09:06:00.998Z,23.44
2022-09-30T09:08:40.788Z,22.76
2022-09-30T09:11:15.791Z,22.15
2022-09-30T09:13:52.732Z,21.47
2022-09-30T09:16:29.330Z,20.75
2022-09-30T09:19:04.863Z,19.92
2022-09-30T09:21:48.375Z,19.33
2022-09-30T09:24:19.745Z,19.05
2022-09-30T09:26:49.739Z,18.78
2022-09-30T09:29:28.952Z,18.69
2022-09-30T09:31:57.664Z,18.89
2022-09-30T09:34:27.098Z,18.90
2022-09-30T09:37:06.601Z,18.65
2022-09-30T09:40:07.799Z,18.41
2022-09-30T09:43:03.806Z,18.45
2022-09-30T09:45:38.015Z,18.09
2022-09-30T09:48:09.673Z,18.05
2022-09-30T09:50:47.781Z,18.02
2022-09-30T09:53:31.254Z,17.94
2022-09-30T09:56:00.585Z,17.79
2022-09-30T09:58:29.937Z,17.83
2022-09-30T10:01:32.259Z,17.87
2022-09-30T10:04:15.964Z,17.97
2022-09-30T10:06:47.154Z,17.98
2022-09-30T10:09:27.334Z,18.03
2022-09-30T10:12:33.777Z,18.00
2022-09-30T10:15:12.361Z,18.00
2022-09-30T10:17:41.083Z,18.19
2022-09-30T10:20:21.356Z,18.26
2022-09-30T10:22:49.735Z,18.38
2022-09-30T10:25:24.683Z,18.59
2022-09-30T10:27:55.976Z,18.50
2022-09-30T10:30:41.495Z,18.67
2022-09-30T10:33:22.080Z,18.64
2022-09-30T10:36:06.808Z,18.76
2022-09-30T10:38:36.205Z,18.85
2022-09-30T10:41:06.556Z,18.68
2022-09-30T10:43:41.912Z,18.55
2022-09-30T10:46:25.940Z,18.48
2022-09-30T10:48:55.963Z,18.42
2022-09-30T10:51:36.323Z,18.57
2022-09-30T10:54:05.444Z,18.92
2022-09-30T10:56:39.852Z,18.98
2022-09-30T10:59:19.931Z,19.10
2022-09-30T11:01:57.471Z,19.18
2022-09-30T11:04:33.162Z,19.12
2022-09-30T11:07:12.369Z,19.03
2022-09-30T11:09:48.250Z,19.12
2022-09-30T11:12:24.404Z,19.04
2022-09-30T11:14:59.194Z,18.87
2022-09-30T11:17:39.577Z,18.90
2022-09-30T11:20:19.607Z,18.84
2022-09-30T11:22:55.578Z,18.70
2022-09-30T11:25:29.376Z,18.72
2022-09-30T11:28:16.928Z,18.64
2022-09-30T11:30:52.845Z,18.29
2022-09-30T11:33:36.432Z,18.14
2022-09-30T11:36:13.685Z,18.09
2022-09-30T11:39:04.350Z,17.80
2022-09-30T11:41:36.256Z,17.88
2022-09-30T11:44:18.068Z,18.04
2022-09-30T11:47:00.772Z,18.24
2022-09-30T11:49:56.589Z,18.28
2022-09-30T11:52:34.479Z,18.06
2022-09-30T11:55:19.875Z,18.12
2022-09-30T11:57:57.143Z,18.24
2022-09-30T12:00:25.034Z,18.35
2022-09-30T12:02:55.923Z,18.25
2022-09-30T12:05:29.865Z,18.08
2022-09-30T12:08:03.156Z,18.10
2022-09-30T12:10:36.153Z,18.10
2022-09-30T12:13:12.400Z,18.02
2022-09-30T12:15:43.867Z,18.08
2022-09-30T12:18:15.729Z,17.98
2022-09-30T12:20:50.337Z,17.84
2022-09-30T12:23:23.799Z,17.68
2022-09-30T12:25:56.954Z,17.68
2022-09-30T12:28:50.925Z,17.72
2022-09-30T12:31:50.370Z,17.96
2022-09-30T12:34:33.092Z,18.03
2022-09-30T12:37:21.626Z,17.95
2022-09-30T12:40:09.066Z,17.88
2022-09-30T12:42:59.774Z,17.73
2022-09-30T12:45:52.664Z,17.85
2022-09-30T12:48:24.070Z,17.84
2022-09-30T12:50:55.046Z,17.71
2022-09-30T12:53:29.452Z,17.97
2022-09-30T12:56:04.615Z,18.19
2022-09-30T12:58:37.599Z,18.20
2022-09-30T13:01:15.141Z,18.20
2022-09-30T13:03:46.910Z,18.23
2022-09-30T13:06:16.748Z,18.23
2022-09-30T13:08:49.390Z,18.37
2022-09-30T13:11:39.062Z,18.33
2022-09-30T13:14:25.063Z,18.29
2022-09-30T13:17:18.406Z,18.14
2022-09-30T13:19:47.819Z,18.17
2022-09-30T13:22:52.920Z,18.08
2022-09-30T13:25:22.865Z,18.02
2022-09-30T13:27:53.918Z,18.09
2022-09-30T13:30:42.757Z,18.27
2022-09-30T13:33:46.034Z,18.17
2022-09-30T13:36:30.213Z,18.09
2022-09-30T13:39:18.796Z,18.08
2022-09-30T13:41:58.652Z,18.26
2022-09-30T13:44:35.174Z,18.53
2022-09-30T13:47:15.333Z,18.73
2022-09-30T13:49:50.923Z,18.73
2022-09-30T13:52:24.170Z,18.67
2022-09-30T13:54:54.854Z,18.69
2022-09-30T13:57:29.913Z,18.69
2022-09-30T14:00:07.441Z,18.63
2022-09-30T14:03:14.423Z,18.78
2022-09-30T14:05:56.866Z,18.85
2022-09-30T14:08:47.833Z,18.90
2022-09-30T14:11:28.133Z,18.90
2022-09-30T14:14:15.112Z,18.79
2022-09-30T14:17:03.565Z,18.65
2022-09-30T14:19:45.386Z,18.70
2022-09-30T14:22:16.030Z,18.74
2022-09-30T14:24:44.144Z,18.55
2022-09-30T14:27:46.678Z,18.62
2022-09-30T14:30:20.220Z,18.54
2022-09-30T14:32:50.642Z,18.59
2022-09-30T14:35:21.973Z,18.47
2022-09-30T14:37:52.750Z,18.38
2022-09-30T14:40:25.111Z,18.30
2022-09-30T14:42:54.154Z,18.16
2022-09-30T14:45:29.555Z,18.13
2022-09-30T14:48:03.908Z,18.10
2022-09-30T14:50:37.990Z,18.10
2022-09-30T14:53:05.877Z,18.15
2022-09-30T14:55:36.064Z,18.03
2022-09-30T14:58:23.389Z,18.06
2022-09-30T15:01:01.235Z,18.08
2022-09-30T15:03:30.598Z,18.06
2022-09-30T15:05:59.074Z,18.00
2022-09-30T15:08:27.451Z,18.05
2022-09-30T15:10:57.384Z,18.00
2022-09-30T15:13:29.588Z,18.01
2022-09-30T15:15:59.242Z,17.99
2022-09-30T15:18:33.102Z,18.00
2022-09-30T15:21:11.767Z,17.99
2022-09-30T15:23:43.074Z,17.95
2022-09-30T15:26:13.906Z,17.85
2022-09-30T15:28:42.061Z,17.89
2022-09-30T15:31:23.471Z,17.75
2022-09-30T15:34:08.249Z,17.67
2022-09-30T15:36:38.190Z,17.65
2022-09-30T15:39:13.918Z,17.69
2022-09-30T15:41:42.582Z,17.59
2022-09-30T15:44:19.061Z,17.40
2022-09-30T15:47:07.264Z,17.45
2022-09-30T15:49:47.456Z,17.45
2022-09-30T15:52:29.592Z,17.34
2022-09-30T15:54:59.235Z,17.24
2022-09-30T15:57:48.784Z,17.20
2022-09-30T16:00:35.434Z,17.15
2022-09-30T16:03:30.107Z,17.05
2022-09-30T16:06:10.196Z,17.03
2022-09-30T16:08:44.126Z,16.91
2022-09-30T16:11:20.547Z,16.87
2022-09-30T16:13:49.844Z,16.91
2022-09-30T16:16:22.307Z,16.87
2022-09-30T16:18:53.786Z,16.82
2022-09-30T16:21:44.200Z,16.72
2022-09-30T16:24:46.289Z,16.72
2022-09-30T16:27:34.057Z,16.55
2022-09-30T16:30:02.770Z,16.46
2022-09-30T16:32:37.513Z,16.47
2022-09-30T16:35:15.047Z,16.45
2022-09-30T16:37:44.147Z,16.40
2022-09-30T16:40:21.058Z,16.35
2022-09-30T16:42:48.919Z,16.26
2022-09-30T16:45:17.992Z,16.22
2022-09-30T16:47:46.330Z,16.23
2022-09-30T16:50:22.168Z,16.19
2022-09-30T16:52:50.218Z,16.12
2022-09-30T16:55:18.219Z,16.12
2022-09-30T16:57:46.186Z,16.10
2022-09-30T17:00:18.217Z,16.02
2022-09-30T17:02:47.410Z,15.97
2022-09-30T17:05:18.806Z,15.92
2022-09-30T17:07:52.159Z,15.88
2022-09-30T17:10:23.171Z,15.85
2022-09-30T17:12:51.870Z,15.79
2022-09-30T17:15:20.971Z,15.70
2022-09-30T17:17:49.237Z,15.65
2022-09-30T17:20:17.202Z,15.62
2022-09-30T17:22:46.466Z,15.59
2022-09-30T17:25:15.848Z,15.49
2022-09-30T17:27:44.280Z,15.42
2022-09-30T17:30:12.867Z,15.41
2022-09-30T17:32:42.427Z,15.38
2022-09-30T17:35:10.699Z,15.34
2022-09-30T17:37:42.450Z,15.33
2022-09-30T17:40:32.855Z,15.25
2022-09-30T17:43:11.931Z,15.17
2022-09-30T17:45:42.116Z,15.14
2022-09-30T17:48:11.199Z,15.14
2022-09-30T17:50:42.433Z,15.13
2022-09-30T17:53:12.986Z,15.09
2022-09-30T17:55:41.257Z,15.05
2022-09-30T17:58:11.715Z,15.02
2022-09-30T18:00:39.870Z,14.96
2022-09-30T18:03:08.895Z,14.95
2022-09-30T18:05:37.930Z,14.95
2022-09-30T18:08:06.235Z,14.94
2022-09-30T18:10:37.658Z,14.87
2022-09-30T18:13:05.920Z,14.79
2022-09-30T18:15:35.237Z,14.79
2022-09-30T18:18:03.292Z,14.74
2022-09-30T18:20:31.135Z,14.71
2022-09-30T18:22:59.016Z,14.68
2022-09-30T18:25:27.026Z,14.65
2022-09-30T18:27:57.901Z,14.64
2022-09-30T18:30:26.881Z,14.60
2022-09-30T18:32:57.108Z,14.58
2022-09-30T18:35:25.553Z,14.52
2022-09-30T18:37:54.257Z,14.48
2022-09-30T18:40:25.912Z,14.44
2022-09-30T18:42:55.762Z,14.39
2022-09-30T18:45:24.310Z,14.36
2022-09-30T18:47:57.172Z,14.34
2022-09-30T18:50:26.816Z,14.31
2022-09-30T18:52:56.410Z,14.27
2022-09-30T18:55:24.922Z,14.24
2022-09-30T18:57:54.942Z,14.24
2022-09-30T19:00:23.021Z,14.19
2022-09-30T19:02:52.771Z,14.18
2022-09-30T19:05:22.517Z,14.13
2022-09-30T19:07:50.493Z,14.12
2022-09-30T19:10:18.501Z,14.11
2022-09-30T19:12:46.625Z,14.09
2022-09-30T19:15:16.562Z,14.08
2022-09-30T19:17:44.986Z,13.99
2022-09-30T19:20:15.422Z,13.94
2022-09-30T19:22:44.881Z,13.88
2022-09-30T19:25:13.175Z,13.78
2022-09-30T19:27:42.939Z,13.77
2022-09-30T19:30:16.372Z,13.74
2022-09-30T19:32:44.469Z,13.74
2022-09-30T19:35:14.090Z,13.66
2022-09-30T19:37:56.057Z,13.62
2022-09-30T19:40:30.432Z,13.60
2022-09-30T19:42:58.474Z,13.59
2022-09-30T19:45:27.238Z,13.51
2022-09-30T19:47:55.205Z,13.46
2022-09-30T19:50:23.382Z,13.46
2022-09-30T19:52:57.312Z,13.45
2022-09-30T19:55:26.046Z,13.42
2022-09-30T19:57:55.446Z,13.33
2022-09-30T20:00:23.315Z,13.31
2022-09-30T20:02:52.760Z,13.32
2022-09-30T20:05:22.295Z,13.33
2022-09-30T20:07:51.259Z,13.28
2022-09-30T20:10:19.664Z,13.25
2022-09-30T20:12:47.528Z,13.20
2022-09-30T20:15:34.624Z,13.17
2022-09-30T20:18:02.475Z,13.12
2022-09-30T20:20:37.314Z,13.13
2022-09-30T20:23:05.352Z,13.09
2022-09-30T20:25:35.624Z,13.08
2022-09-30T20:28:05.253Z,13.01
2022-09-30T20:30:38.266Z,12.96
2022-09-30T20:33:06.738Z,12.98
2022-09-30T20:35:36.958Z,12.94
2022-09-30T20:38:05.299Z,12.90
2022-09-30T20:40:34.663Z,12.87
2022-09-30T20:43:04.208Z,12.87
2022-09-30T20:45:32.629Z,12.85
2022-09-30T20:48:03.725Z,12.81
2022-09-30T20:50:37.342Z,12.79
2022-09-30T20:53:08.886Z,12.72
2022-09-30T20:55:38.798Z,12.69
2022-09-30T20:58:08.196Z,12.66
2022-09-30T21:00:39.985Z,12.67
2022-09-30T21:03:11.428Z,12.60
2022-09-30T21:05:39.498Z,12.55
2022-09-30T21:08:07.833Z,12.55
2022-09-30T21:10:37.253Z,12.52
2022-09-30T21:13:10.558Z,12.48
2022-09-30T21:15:38.560Z,12.48
2022-09-30T21:18:06.722Z,12.51
2022-09-30T21:20:36.378Z,12.45
2022-09-30T21:23:04.440Z,12.42
2022-09-30T21:25:32.831Z,12.42
2022-09-30T21:28:00.928Z,12.40
2022-09-30T21:30:28.964Z,12.34
2022-09-30T21:32:56.867Z,12.33
2022-09-30T21:35:24.906Z,12.34
2022-09-30T21:37:54.097Z,12.36
2022-09-30T21:40:21.935Z,12.37
2022-09-30T21:42:49.983Z,12.31
2022-09-30T21:45:20.103Z,12.33
2022-09-30T21:47:48.000Z,12.33
2022-09-30T21:50:16.278Z,12.34
2022-09-30T21:52:44.145Z,12.35
2022-09-30T21:55:13.793Z,12.35
2022-09-30T21:57:41.705Z,12.31
2022-09-30T22:00:10.916Z,12.32
2022-09-30T22:02:38.817Z,12.29
2022-09-30T22:05:07.305Z,12.29
2022-09-30T22:07:35.325Z,12.29
2022-09-30T22:10:03.722Z,12.25
2022-09-30T22:12:33.696Z,12.27
2022-09-30T22:15:01.639Z,12.23
2022-09-30T22:17:29.489Z,12.26
2022-09-30T22:19:58.039Z,12.18
2022-09-30T22:22:26.596Z,12.21
2022-09-30T22:24:54.564Z,12.22
2022-09-30T22:27:22.568Z,12.20
2022-09-30T22:29:51.775Z,12.22
2022-09-30T22:32:19.682Z,12.25
2022-09-30T22:35:04.805Z,12.28
2022-09-30T22:37:50.004Z,12.30
2022-09-30T22:40:17.986Z,12.29
2022-09-30T22:42:47.975Z,12.33
2022-09-30T22:45:17.513Z,12.29
2022-09-30T22:47:45.920Z,12.36
2022-09-30T22:50:14.045Z,12.33
2022-09-30T22:52:42.150Z,12.43
2022-09-30T22:55:12.836Z,12.42
2022-09-30T22:57:40.847Z,12.38
2022-09-30T23:00:09.821Z,12.51
2022-09-30T23:02:39.158Z,12.56
2022-09-30T23:05:08.416Z,12.57
2022-09-30T23:07:36.334Z,12.63
2022-09-30T23:10:04.806Z,12.52
2022-09-30T23:12:33.807Z,12.49
2022-09-30T23:15:01.756Z,12.49
2022-09-30T23:17:29.623Z,12.47
2022-09-30T23:19:58.892Z,12.45
2022-09-30T23:22:26.963Z,12.40
2022-09-30T23:24:54.827Z,12.39
2022-09-30T23:27:22.705Z,12.36
2022-09-30T23:29:50.697Z,12.38
2022-09-30T23:32:18.810Z,12.34
2022-09-30T23:34:46.681Z,12.36
2022-09-30T23:37:16.197Z,12.37
2022-09-30T23:39:44.103Z,12.43
2022-09-30T23:42:11.958Z,12.36
2022-09-30T23:44:39.842Z,12.43
2022-09-30T23:47:19.642Z,12.45
2022-09-30T23:49:47.743Z,12.44
2022-09-30T23:52:17.472Z,12.42
2022-09-30T23:54:45.742Z,12.39
2022-09-30T23:57:13.848Z,12.39
2022-09-30T23:59:41.720Z,12.35
